createdAt,value
2018-03-30T00:03:29.620Z,4.31
2018-03-30T00:09:20.544Z,6.86
2018-03-30T00:15:11.444Z,5.55
2018-03-30T00:21:02.342Z,5.26
2018-03-30T00:26:53.214Z,6.79
2018-03-30T00:32:44.077Z,8.05
2018-03-30T00:38:35.035Z,7.14
2018-03-30T00:44:25.934Z,4.7
2018-03-30T00:50:16.781Z,3.85
2018-03-30T00:56:07.684Z,5.41
2018-03-30T01:01:58.611Z,5.09
2018-03-30T01:07:49.529Z,3.9
2018-03-30T01:13:40.380Z,6.61
2018-03-30T01:19:31.290Z,6.92
2018-03-30T01:25:22.148Z,6.14
2018-03-30T01:31:13.100Z,5.58
2018-03-30T01:37:03.951Z,6.46
2018-03-30T01:42:54.861Z,5.61
2018-03-30T01:48:45.729Z,6.19
2018-03-30T01:54:36.636Z,4.91
2018-03-30T02:00:27.518Z,4.03
2018-03-30T02:06:18.454Z,6.35
2018-03-30T02:12:09.327Z,5.7
2018-03-30T02:18:00.241Z,4.42
2018-03-30T02:23:51.134Z,6.34
2018-03-30T02:29:42.007Z,5.02
2018-03-30T02:35:32.918Z,7.47
2018-03-30T02:41:23.779Z,5.85
2018-03-30T02:47:14.692Z,4.74
2018-03-30T02:53:05.573Z,5.35
2018-03-30T02:58:56.498Z,5.47
2018-03-30T03:04:47.382Z,3.98
2018-03-30T03:10:38.251Z,4.98
2018-03-30T03:16:29.164Z,5.3
2018-03-30T03:22:20.074Z,7.38
2018-03-30T03:28:10.935Z,5.59
2018-03-30T03:34:01.858Z,6.25
2018-03-30T03:39:52.773Z,6.86
2018-03-30T03:45:43.702Z,8.89
2018-03-30T03:51:34.545Z,5.79
2018-03-30T03:57:25.424Z,6.43
2018-03-30T04:03:16.376Z,6.87
2018-03-30T04:09:07.266Z,6.65
2018-03-30T04:14:58.193Z,15.07
2018-03-30T04:20:49.011Z,12.9
2018-03-30T04:26:39.938Z,13.52
2018-03-30T04:32:30.839Z,8.29
2018-03-30T04:38:21.693Z,6.18
2018-03-30T04:44:12.634Z,7.72
2018-03-30T04:50:03.556Z,8.62
2018-03-30T04:55:54.438Z,6.29
2018-03-30T05:01:45.322Z,9.66
2018-03-30T05:07:36.164Z,6.15
2018-03-30T05:13:27.153Z,7.82
2018-03-30T05:19:18.002Z,8.54
2018-03-30T05:25:08.883Z,7.18
2018-03-30T05:30:59.826Z,11.58
2018-03-30T05:36:50.716Z,10.03
2018-03-30T05:42:41.569Z,10.69
2018-03-30T05:48:32.473Z,8.11
2018-03-30T05:54:23.347Z,10.44
2018-03-30T06:00:14.271Z,7.97
2018-03-30T06:06:05.134Z,9.36
2018-03-30T06:11:56.068Z,11.8
2018-03-30T06:17:46.956Z,8.6
2018-03-30T06:23:37.821Z,9.29
2018-03-30T06:29:28.738Z,11.13
2018-03-30T06:35:19.653Z,9.41
2018-03-30T06:41:10.553Z,11.71
2018-03-30T06:47:01.402Z,8.64
2018-03-30T06:52:52.314Z,9.26
2018-03-30T06:58:43.183Z,8.38
2018-03-30T07:04:34.102Z,9.91
2018-03-30T07:10:25.003Z,16.22
2018-03-30T07:16:15.858Z,15.15
2018-03-30T07:22:06.780Z,35.14
2018-03-30T07:27:57.675Z,23.92
2018-03-30T07:33:48.540Z,22.86
2018-03-30T07:39:39.458Z,14.99
2018-03-30T07:45:30.345Z,16.06
2018-03-30T07:51:21.259Z,15.31
2018-03-30T07:57:12.179Z,11.3
2018-03-30T08:03:03.053Z,13.24
2018-03-30T08:08:53.953Z,14.27
2018-03-30T08:14:44.848Z,14.4
2018-03-30T08:20:35.723Z,15.61
2018-03-30T08:26:26.606Z,15.39
2018-03-30T08:32:17.491Z,16.31
2018-03-30T08:38:08.433Z,14.47
2018-03-30T08:43:59.366Z,16.17
2018-03-30T08:49:50.206Z,13.77
2018-03-30T08:55:41.171Z,11.38
2018-03-30T09:01:32.021Z,11.75
2018-03-30T09:07:22.866Z,12.77
2018-03-30T09:13:13.812Z,16.01
2018-03-30T09:19:04.701Z,16.44
2018-03-30T09:24:55.545Z,14.89
2018-03-30T09:30:46.427Z,17.09
2018-03-30T09:36:37.342Z,11.88
2018-03-30T09:42:28.255Z,12.54
2018-03-30T09:48:19.126Z,12.61
2018-03-30T09:54:10.070Z,9.55
2018-03-30T10:00:00.909Z,10.27
2018-03-30T10:05:51.809Z,11.7
2018-03-30T10:11:42.735Z,8.4
2018-03-30T10:17:33.599Z,9.13
2018-03-30T10:23:24.512Z,8.31
2018-03-30T10:29:15.411Z,12.88
2018-03-30T10:35:06.278Z,9.96
2018-03-30T10:40:57.190Z,9.32
2018-03-30T10:46:48.060Z,9.26
2018-03-30T10:52:38.940Z,10.11
2018-03-30T10:58:29.876Z,10.88
2018-03-30T11:04:20.778Z,16.13
2018-03-30T11:10:11.747Z,10.29
2018-03-30T11:16:02.569Z,10.34
2018-03-30T11:21:53.515Z,11.75
2018-03-30T11:27:44.353Z,13.5
2018-03-30T11:33:35.202Z,13.36
2018-03-30T11:39:26.197Z,5.87
2018-03-30T11:45:17.017Z,8.09
2018-03-30T11:51:07.931Z,9.19
2018-03-30T11:56:58.796Z,7.6
2018-03-30T12:02:49.705Z,8.85
2018-03-30T12:08:40.636Z,8.18
2018-03-30T12:14:31.544Z,8.4
2018-03-30T12:20:22.393Z,6.77
2018-03-30T12:26:13.288Z,6.46
2018-03-30T12:32:04.171Z,6.09
2018-03-30T12:37:55.126Z,6.95
2018-03-30T12:43:46.012Z,5.81
2018-03-30T12:49:36.933Z,5.77
2018-03-30T12:55:27.728Z,6.09
2018-03-30T13:01:18.702Z,8.63
2018-03-30T13:07:09.570Z,4.03
2018-03-30T13:13:00.449Z,7.76
2018-03-30T13:18:51.314Z,6.6
2018-03-30T13:24:42.239Z,5.87
2018-03-30T13:30:33.117Z,7.95
2018-03-30T13:36:24.069Z,4.64
2018-03-30T13:42:14.904Z,5.31
2018-03-30T13:48:05.838Z,5.99
2018-03-30T13:53:56.695Z,7.69
2018-03-30T13:59:47.618Z,5.95
2018-03-30T14:05:38.529Z,5.59
2018-03-30T14:11:29.412Z,8.01
2018-03-30T14:17:20.321Z,5.94
2018-03-30T14:23:11.182Z,7.57
2018-03-30T14:29:02.079Z,7.77
2018-03-30T14:34:52.972Z,5.62
2018-03-30T14:40:43.942Z,6.53
2018-03-30T14:46:34.780Z,5.65
2018-03-30T14:52:25.739Z,4.32
2018-03-30T14:58:16.638Z,3.87
2018-03-30T15:04:07.431Z,8.75
2018-03-30T15:09:58.362Z,3.43
2018-03-30T15:15:49.227Z,5.8
2018-03-30T15:21:40.165Z,3.48
2018-03-30T15:27:31.078Z,5.43
2018-03-30T15:33:21.923Z,5.75
2018-03-30T15:39:12.879Z,7.56
2018-03-30T15:45:03.740Z,6.69
2018-03-30T15:50:54.630Z,5.76
2018-03-30T15:56:45.536Z,4.63
2018-03-30T16:02:36.396Z,7.8
2018-03-30T16:08:27.302Z,6.3
2018-03-30T16:14:18.210Z,6
2018-03-30T16:20:09.130Z,6.35
2018-03-30T16:26:00.011Z,7.08
2018-03-30T16:31:50.931Z,6.09
2018-03-30T16:37:41.868Z,9.24
2018-03-30T16:43:32.727Z,15.41
2018-03-30T16:49:23.599Z,25.7
2018-03-30T16:55:14.565Z,29.56
2018-03-30T17:01:05.423Z,28.15
2018-03-30T17:06:56.271Z,9.78
2018-03-30T17:12:47.172Z,24.42
2018-03-30T17:18:38.101Z,16.96
2018-03-30T17:24:28.967Z,11.56
2018-03-30T17:30:19.927Z,5.8
2018-03-30T17:36:10.757Z,9.09
2018-03-30T17:42:01.726Z,5.51
2018-03-30T17:47:52.558Z,3.96
2018-03-30T17:53:43.535Z,7.54
2018-03-30T17:59:34.376Z,9.89
2018-03-30T18:05:25.280Z,6.05
2018-03-30T18:11:16.220Z,6.57
2018-03-30T18:17:07.187Z,3.88
2018-03-30T18:22:57.970Z,7.76
2018-03-30T18:28:48.849Z,3.64
2018-03-30T18:34:39.825Z,3.33
2018-03-30T18:40:30.723Z,4.8
2018-03-30T18:46:21.531Z,2.94
2018-03-30T18:52:12.493Z,6.85
2018-03-30T18:58:03.369Z,2.99
2018-03-30T19:03:54.275Z,6.07
2018-03-30T19:09:45.151Z,3.9
2018-03-30T19:15:36.067Z,6.06
2018-03-30T19:21:26.923Z,6.45
2018-03-30T19:27:17.812Z,4.76
2018-03-30T19:33:08.746Z,5.07
2018-03-30T19:38:59.683Z,4.85
2018-03-30T19:44:50.510Z,4.16
2018-03-30T19:50:41.417Z,3.34
2018-03-30T19:56:32.311Z,4.72
2018-03-30T20:02:23.200Z,3.55
2018-03-30T20:08:14.118Z,2.98
2018-03-30T20:14:05.046Z,3.35
2018-03-30T20:19:55.920Z,3.51
2018-03-30T20:25:46.818Z,6.74
2018-03-30T20:31:37.702Z,3.72
2018-03-30T20:37:28.646Z,2.96
2018-03-30T20:43:19.513Z,3.47
2018-03-30T20:49:10.437Z,2.26
2018-03-30T20:55:01.343Z,2.03
2018-03-30T21:00:52.202Z,4.8
2018-03-30T21:06:43.095Z,2.42
2018-03-30T21:12:34.009Z,2.9
2018-03-30T21:18:24.941Z,1.82
2018-03-30T21:24:15.806Z,2.27
2018-03-30T21:30:06.761Z,5.72
2018-03-30T21:35:57.630Z,3.15
2018-03-30T21:41:48.598Z,2.9
2018-03-30T21:47:39.377Z,3.44
2018-03-30T21:53:30.367Z,2.63
2018-03-30T21:59:21.215Z,4.61
2018-03-30T22:05:12.103Z,3.59
2018-03-30T22:11:03.022Z,3.49
2018-03-30T22:16:53.873Z,6.06
2018-03-30T22:22:44.793Z,1.94
2018-03-30T22:28:35.691Z,4.6
2018-03-30T22:34:26.682Z,4.46
2018-03-30T22:40:17.507Z,7.2
2018-03-30T22:46:08.386Z,2.84
2018-03-30T22:51:59.399Z,5.39
2018-03-30T22:57:50.223Z,5.55
2018-03-30T23:03:41.111Z,3.2
2018-03-30T23:09:31.963Z,3.14
2018-03-30T23:15:22.865Z,5.04
2018-03-30T23:21:13.737Z,2.87
2018-03-30T23:27:04.650Z,4.71
2018-03-30T23:32:55.513Z,2.12
2018-03-30T23:38:46.482Z,4.15
2018-03-30T23:44:37.419Z,6.6
2018-03-30T23:50:28.216Z,4.63
2018-03-30T23:56:19.160Z,4.63
